Data for 05/24/2010

Time Sea-Level Adjusted Pressure Absolute Pressure Temperature Relative Humidity Dew Point   
(mb) (inHg) (mb) (inHg) (C) (F) (%) (C) (F)
00:05 1010 29.83 839 24.78 5.8 42.5 70 0.8 33.5
00:10 1010 29.83 839 24.78 5.7 42.2 71 0.8 33.5
00:15 1010 29.83 839 24.78 5.6 42.1 70 0.5 33
00:20 1010 29.83 839 24.78 5.7 42.2 70 0.7 33.3
00:25 1010 29.83 840 24.81 5.6 42.1 73 1.2 34.1
00:30 1010 29.83 839 24.78 5.6 42 70 0.5 32.9
00:35 1010 29.83 839 24.78 5.6 42.1 71 0.7 33.2
00:40 1010 29.83 839 24.78 5.5 41.9 72 0.9 33.6
00:45 1010 29.83 839 24.78 5.5 41.8 74 1.2 34.2
00:50 1010 29.83 839 24.78 5.5 41.9 69 0.2 32.4
00:55 1010 29.83 839 24.78 5.9 42.5 68 0.3 32.6
01:00 1010 29.83 839 24.78 5.9 42.6 70 0.9 33.6
01:05 1010 29.83 839 24.78 5.8 42.4 74 1.4 34.6
01:10 1010 29.83 840 24.81 5.6 42 70 0.6 33
01:15 1010 29.83 839 24.78 5.6 42.1 69 0.4 32.8
01:20 1010 29.83 839 24.78 5.6 42 71 0.8 33.4
01:25 1010 29.83 839 24.78 5.4 41.7 76 1.5 34.6
01:30 1010 29.83 839 24.78 5 41.1 78 1.5 34.7
01:35 1010 29.83 839 24.78 4.9 40.8 78 1.3 34.4
01:40 1010 29.83 839 24.78 4.8 40.7 79 1.4 34.6
01:45 1010 29.83 839 24.78 4.7 40.5 80 1.5 34.7
01:50 1010 29.83 839 24.78 4.7 40.4 83 2 35.6
01:55 1010 29.83 840 24.81 4.5 40.1 86 2.3 36.2
02:00 1010 29.83 840 24.81 4.3 39.8 86 2.2 36
02:05 1010 29.83 839 24.78 4 39.3 87 2.1 35.8
02:10 1010 29.83 839 24.78 3.9 39 90 2.3 36.2
02:15 1010 29.83 839 24.78 3.8 38.8 90 2.4 36.3
02:20 1010 29.83 839 24.78 3.6 38.5 90 2.2 35.9
02:25 1010 29.83 839 24.78 3.6 38.5 86 1.5 34.8
02:30 1010 29.83 839 24.78 3.7 38.6 87 1.7 35.1
02:35 1010 29.83 839 24.78 3.7 38.6 86 1.6 34.9
02:40 1010 29.83 839 24.78 3.5 38.3 89 1.8 35.3
02:45 1010 29.83 839 24.78 3.3 37.9 89 1.5 34.8
02:50 1010 29.83 839 24.78 3.3 37.9 88 1.5 34.7
02:55 1010 29.83 839 24.78 3.1 37.6 87 1.2 34.2
03:00 1010 29.83 839 24.78 2.8 37.1 89 1.2 34.2
03:05 1010 29.83 839 24.78 2.6 36.7 91 1.2 34.2
03:10 1010 29.83 839 24.78 2.2 36 91 0.9 33.7
03:15 1010 29.83 839 24.78 1.9 35.4 92 0.8 33.4
03:20 1010 29.83 839 24.78 1.6 34.8 93 0.6 33
03:25 1010 29.83 839 24.78 1.3 34.3 94 0.4 32.7
03:30 1010 29.83 839 24.78 1.1 34 95 0.4 32.7
03:35 1010 29.83 839 24.78 1.1 34 95 0.4 32.8
03:40 1010 29.83 839 24.78 1 33.7 96 0.3 32.6
03:45 1010 29.83 839 24.78 0.9 33.7 96 0.3 32.6
03:50 1010 29.83 839 24.78 0.9 33.6 96 0.3 32.6
03:55 1010 29.83 839 24.78 0.9 33.6 96 0.4 32.6
04:00 1010 29.83 839 24.78 1 33.7 96 0.4 32.7
04:05 1010 29.83 839 24.78 1 33.8 96 0.4 32.8
04:10 1010 29.83 839 24.78 1.1 34 96 0.5 33
04:15 1010 29.83 839 24.78 1.2 34.2 96 0.6 33.1
04:20 1010 29.83 839 24.78 1.3 34.4 96 0.7 33.3
04:25 1009 29.8 839 24.78 1.4 34.5 96 0.8 33.4
04:30 1009 29.8 839 24.78 1.5 34.8 95 0.8 33.5
04:35 1010 29.83 839 24.78 1.8 35.2 94 0.9 33.6
04:40 1010 29.83 839 24.78 2 35.5 93 0.9 33.6
04:45 1009 29.8 839 24.78 2 35.7 92 0.9 33.6
04:50 1009 29.8 838 24.75 2 35.7 93 1 33.7
04:55 1009 29.8 838 24.75 2 35.6 93 1 33.7
05:00 1009 29.8 838 24.75 2.1 35.7 92 0.9 33.7
05:05 1009 29.8 838 24.75 2.1 35.7 93 1 33.8
05:10 1009 29.8 838 24.75 2.1 35.8 93 1.1 33.9
05:15 1009 29.8 839 24.78 2 35.5 93 1 33.8
05:20 1009 29.8 839 24.78 2 35.7 93 1 33.8
05:25 1009 29.8 839 24.78 2 35.6 92 0.9 33.6
05:30 1009 29.8 838 24.75 1.9 35.5 93 0.9 33.6
05:35 1009 29.8 838 24.75 2.1 35.8 92 0.9 33.7
05:40 1009 29.8 838 24.75 2.1 35.8 92 0.9 33.6
05:45 1009 29.8 838 24.75 1.9 35.4 93 0.8 33.5
05:50 1009 29.8 838 24.75 1.6 34.9 94 0.7 33.2
05:55 1009 29.8 838 24.75 1.8 35.2 93 0.8 33.5
06:00 1009 29.8 838 24.75 1.9 35.4 93 0.8 33.5
06:05 1009 29.8 838 24.75 2 35.6 92 0.9 33.6
06:10 1009 29.8 838 24.75 2.1 35.7 92 0.9 33.6
06:15 1009 29.8 838 24.75 2.3 36.1 92 1.1 34
06:20 1009 29.8 838 24.75 2.5 36.4 92 1.3 34.3
06:25 1009 29.8 838 24.75 2.4 36.4 91 1.2 34.1
06:30 1009 29.8 838 24.75 2.4 36.2 91 1.1 33.9
06:35 1009 29.8 838 24.75 2.3 36.1 92 1.1 33.9
06:40 1009 29.8 838 24.75 2.2 36 92 1.1 34
06:45 1009 29.8 838 24.75 2.2 35.9 93 1.1 34
06:50 1009 29.8 838 24.75 2.2 35.9 93 1.2 34.2
06:55 1009 29.8 838 24.75 2.2 36 94 1.3 34.3
07:00 1009 29.8 838 24.75 2.3 36.1 94 1.3 34.4
07:05 1009 29.8 838 24.75 2.3 36.2 93 1.3 34.4
07:10 1009 29.8 838 24.75 2.3 36.2 92 1.2 34.2
07:15 1009 29.8 838 24.75 2.3 36.2 92 1.2 34.2
07:20 1009 29.8 838 24.75 2.3 36.1 93 1.2 34.1
07:25 1009 29.8 838 24.75 2.2 36 92 1 33.9
07:30 1009 29.8 838 24.75 2.2 36 93 1.2 34.1
07:35 1009 29.8 838 24.75 2.2 36 92 1.1 34.1
07:40 1009 29.8 838 24.75 2.2 36 92 1.1 34
07:45 1009 29.8 838 24.75 2.3 36.1 92 1.1 34.1
07:50 1009 29.8 838 24.75 2.3 36.1 92 1.2 34.1
07:55 1009 29.8 838 24.75 2.3 36.2 92 1.2 34.1
08:00 1009 29.8 838 24.75 2.4 36.3 91 1.1 33.9
08:05 1009 29.8 838 24.75 2.3 36.2 91 0.9 33.7
08:10 1009 29.8 838 24.75 2.4 36.2 90 0.9 33.7
08:15 1009 29.8 838 24.75 2.4 36.3 90 0.9 33.6
08:20 1009 29.8 838 24.75 2.4 36.3 89 0.8 33.4
08:25 1009 29.8 838 24.75 2.3 36.1 90 0.8 33.4
08:30 1009 29.8 838 24.75 2.1 35.8 90 0.7 33.3
08:35 1009 29.8 838 24.75 2.2 35.9 91 0.9 33.6
08:40 1009 29.8 838 24.75 2.3 36.1 91 1 33.8
08:45 1009 29.8 838 24.75 2.3 36.2 92 1.1 34
08:50 1009 29.8 838 24.75 2.4 36.4 92 1.3 34.3
08:55 1009 29.8 838 24.75 2.6 36.6 91 1.2 34.2
09:00 1009 29.8 838 24.75 2.7 36.8 90 1.1 34
09:05 1009 29.8 838 24.75 2.6 36.7 90 1.1 34
09:10 1009 29.8 838 24.75 2.6 36.7 90 1.1 34
09:15 1008 29.77 838 24.75 2.7 36.9 89 1.1 33.9
09:20 1008 29.77 838 24.75 2.8 37 87 0.9 33.6
09:25 1008 29.77 838 24.75 2.8 37 88 1 33.8
09:30 1008 29.77 838 24.75 2.7 36.9 88 1 33.7
09:35 1008 29.77 837 24.72 2.6 36.7 89 1 33.8
09:40 1008 29.77 838 24.75 2.8 37 89 1.2 34.1
09:45 1008 29.77 838 24.75 3 37.4 87 1.1 34
09:50 1008 29.77 838 24.75 3.1 37.5 91 1.7 35.1
09:55 1009 29.8 838 24.75 3.1 37.7 92 2 35.7
10:00 1009 29.8 838 24.75 3 37.3 92 1.8 35.3
10:05 1009 29.8 838 24.75 2.9 37.3 93 1.9 35.4
10:10 1008 29.77 838 24.75 3 37.5 93 2.1 35.8
10:15 1008 29.77 838 24.75 3.4 38 91 2 35.7
10:20 1008 29.77 838 24.75 3.5 38.3 90 2 35.6
10:25 1008 29.77 838 24.75 3.5 38.3 91 2.1 35.8
10:30 1008 29.77 838 24.75 3.3 38 92 2.1 35.8
10:35 1008 29.77 837 24.72 3.3 38 92 2.1 35.9
10:40 1008 29.77 837 24.72 3.7 38.7 90 2.2 36
10:45 1008 29.77 837 24.72 4.5 40.1 88 2.6 36.8
10:50 1008 29.77 837 24.72 4.4 39.9 88 2.6 36.7
10:55 1008 29.77 838 24.75 4.2 39.6 86 2.1 35.7
11:00 1008 29.77 838 24.75 4.4 39.9 87 2.4 36.4
11:05 1008 29.77 838 24.75 4.6 40.2 84 2.1 35.7
11:10 1008 29.77 837 24.72 5.2 41.3 83 2.4 36.4
11:15 1008 29.77 837 24.72 5.5 41.9 83 2.8 37
11:20 1008 29.77 838 24.75 5.2 41.3 85 2.9 37.2
11:25 1008 29.77 838 24.75 4.8 40.7 86 2.7 36.9
11:30 1008 29.77 838 24.75 5.1 41.3 85 2.8 37.1
11:35 1008 29.77 838 24.75 5.2 41.4 83 2.6 36.7
11:40 1008 29.77 838 24.75 5.2 41.4 80 2.1 35.8
11:45 1008 29.77 837 24.72 5.5 41.9 82 2.6 36.7
11:50 1008 29.77 837 24.72 5.8 42.5 78 2.4 36.2
11:55 1008 29.77 837 24.72 5.8 42.5 78 2.4 36.3
12:00 1008 29.77 837 24.72 5.9 42.7 77 2.3 36.1
12:05 1008 29.77 837 24.72 6 42.7 77 2.2 36
12:10 1008 29.77 837 24.72 6.2 43.1 76 2.2 36
12:15 1008 29.77 837 24.72 6.2 43.1 77 2.4 36.3
12:20 1008 29.77 837 24.72 6.3 43.3 77 2.6 36.6
12:25 1008 29.77 838 24.75 6.5 43.8 76 2.7 36.8
12:30 1008 29.77 838 24.75 6.1 42.9 80 2.8 37.1
12:35 1009 29.8 838 24.75 6 42.8 78 2.5 36.4
12:40 1008 29.77 838 24.75 6.2 43.2 79 2.8 37
12:45 1008 29.77 838 24.75 6.4 43.5 76 2.5 36.5
12:50 1009 29.8 838 24.75 6.7 44 74 2.5 36.4
12:55 1009 29.8 838 24.75 6.6 44 76 2.6 36.7
13:00 1008 29.77 838 24.75 6.9 44.4 75 2.8 37.1
13:05 1008 29.77 838 24.75 7.2 45 74 2.9 37.2
13:10 1008 29.77 838 24.75 7.1 44.8 77 3.4 38
13:15 1009 29.8 838 24.75 6.8 44.2 77 3 37.4
13:20 1009 29.8 838 24.75 6.5 43.7 78 3 37.4
13:25 1009 29.8 838 24.75 6.7 44.1 78 3.2 37.7
13:30 1009 29.8 838 24.75 6.9 44.4 77 3.2 37.8
13:35 1009 29.8 838 24.75 6.8 44.2 77 3 37.4
13:40 1009 29.8 838 24.75 6.7 44.1 79 3.3 37.9
13:45 1009 29.8 838 24.75 6.4 43.6 81 3.5 38.2
13:50 1009 29.8 838 24.75 6.4 43.5 80 3.2 37.8
13:55 1009 29.8 838 24.75 6.5 43.8 80 3.3 37.9
14:00 1009 29.8 838 24.75 6.6 43.8 81 3.5 38.3
14:05 1009 29.8 838 24.75 6.6 44 80 3.5 38.3
14:10 1009 29.8 838 24.75 6.4 43.5 83 3.7 38.6
14:15 1009 29.8 838 24.75 6.2 43.1 85 3.9 38.9
14:20 1009 29.8 838 24.75 6 42.9 84 3.6 38.5
14:25 1010 29.83 839 24.78 6 42.9 86 3.8 38.9
14:30 1010 29.83 839 24.78 6 42.8 87 3.9 39.1
14:35 1010 29.83 839 24.78 6 42.9 87 4.1 39.3
14:40 1010 29.83 839 24.78 6.1 43 87 4.1 39.4
14:45 1010 29.83 839 24.78 6.1 42.9 87 4 39.2
14:50 1010 29.83 839 24.78 6 42.8 89 4.4 39.9
14:55 1010 29.83 839 24.78 6.1 43 88 4.3 39.7
15:00 1010 29.83 839 24.78 6.1 43.1 89 4.5 40.1
15:05 1010 29.83 839 24.78 6.2 43.1 89 4.5 40.2
15:10 1010 29.83 839 24.78 6.2 43.1 89 4.5 40.1
15:15 1010 29.83 839 24.78 6 42.9 90 4.5 40.1
15:20 1010 29.83 839 24.78 6 42.7 91 4.6 40.4
15:25 1010 29.83 839 24.78 6 42.8 91 4.7 40.5
15:30 1010 29.83 839 24.78 6 42.7 91 4.7 40.4
15:35 1010 29.83 839 24.78 6 42.8 91 4.7 40.4
15:40 1010 29.83 839 24.78 6 42.8 92 4.8 40.6
15:45 1010 29.83 839 24.78 6.1 42.9 92 4.8 40.7
15:50 1010 29.83 839 24.78 6.1 42.9 92 4.8 40.7
15:55 1010 29.83 839 24.78 6.1 43 91 4.8 40.6
16:00 1010 29.83 839 24.78 6.1 42.9 91 4.6 40.3
16:05 1010 29.83 839 24.78 5.8 42.5 92 4.6 40.2
16:10 1010 29.83 839 24.78 5.8 42.4 91 4.5 40.1
16:15 1010 29.83 839 24.78 5.6 42 91 4.2 39.6
16:20 1010 29.83 839 24.78 5.5 41.8 93 4.3 39.8
16:25 1010 29.83 839 24.78 5.6 42.1 93 4.5 40.1
16:30 1010 29.83 839 24.78 5.5 41.9 92 4.3 39.7
16:35 1010 29.83 839 24.78 5.6 42.1 93 4.6 40.2
16:40 1010 29.83 839 24.78 5.8 42.5 93 4.7 40.5
16:45 1010 29.83 840 24.81 6 42.8 92 4.8 40.7
16:50 1010 29.83 839 24.78 5.7 42.3 91 4.4 40
16:55 1010 29.83 839 24.78 5.4 41.8 92 4.3 39.8
17:00 1010 29.83 839 24.78 5.2 41.4 93 4.2 39.6
17:05 1010 29.83 839 24.78 5.3 41.6 92 4.2 39.6
17:10 1010 29.83 840 24.81 5.4 41.6 92 4.1 39.5
17:15 1010 29.83 840 24.81 5.2 41.4 90 3.7 38.6
17:20 1010 29.83 840 24.81 5.1 41.2 90 3.6 38.4
17:25 1011 29.85 840 24.81 4.9 40.9 89 3.2 37.8
17:30 1011 29.85 840 24.81 4.8 40.6 90 3.3 37.9
17:35 1011 29.85 840 24.81 4.8 40.7 91 3.6 38.4
17:40 1011 29.85 840 24.81 4.9 40.8 91 3.5 38.3
17:45 1011 29.85 840 24.81 5 41 92 3.9 39
17:50 1011 29.85 840 24.81 5.1 41.2 92 4 39.2
17:55 1011 29.85 840 24.81 5.3 41.5 93 4.1 39.5
18:00 1011 29.85 840 24.81 5.4 41.6 93 4.3 39.7
18:05 1011 29.85 840 24.81 5.4 41.8 92 4.3 39.7
18:10 1011 29.85 840 24.81 5.4 41.7 93 4.3 39.8
18:15 1011 29.85 840 24.81 5.3 41.6 92 4.1 39.4
18:20 1011 29.85 840 24.81 5.2 41.4 91 3.9 39
18:25 1011 29.85 840 24.81 5.2 41.3 92 3.9 39.1
18:30 1011 29.85 840 24.81 5.2 41.3 92 3.9 39.1
18:35 1011 29.85 840 24.81 5.2 41.3 92 4 39.2
18:40 1011 29.85 840 24.81 5.2 41.4 92 4.1 39.3
18:45 1011 29.85 840 24.81 5.2 41.4 92 4.1 39.4
18:50 1011 29.85 840 24.81 5.3 41.5 93 4.2 39.5
18:55 1011 29.85 841 24.83 5.3 41.5 93 4.1 39.5
19:00 1011 29.85 841 24.83 5.2 41.4 93 4.1 39.4
19:05 1011 29.85 841 24.83 5.2 41.3 93 4.1 39.4
19:10 1011 29.85 841 24.83 5.1 41.2 93 4 39.2
19:15 1012 29.88 841 24.83 5 41 93 3.9 39
19:20 1012 29.88 841 24.83 5 41.1 92 3.9 39
19:25 1012 29.88 841 24.83 5 41 92 3.8 38.9
19:30 1012 29.88 841 24.83 5 41 92 3.9 38.9
19:35 1012 29.88 841 24.83 5.1 41.3 93 4 39.3
19:40 1012 29.88 841 24.83 5.1 41.1 92 3.8 38.8
19:45 1012 29.88 841 24.83 5 41 92 3.8 38.8
19:50 1012 29.88 841 24.83 5 40.9 92 3.8 38.8
19:55 1012 29.88 841 24.83 5 41 92 3.8 38.9
20:00 1012 29.88 841 24.83 5 40.9 91 3.7 38.6
20:05 1012 29.88 841 24.83 4.9 40.8 92 3.6 38.6
20:10 1012 29.88 841 24.83 4.9 40.8 91 3.6 38.4
20:15 1012 29.88 841 24.83 4.9 40.8 91 3.6 38.5
20:20 1012 29.88 841 24.83 4.9 40.9 91 3.6 38.5
20:25 1012 29.88 841 24.83 4.9 40.8 91 3.6 38.5
20:30 1012 29.88 841 24.83 4.9 40.8 92 3.6 38.5
20:35 1012 29.88 842 24.86 4.9 40.7 92 3.6 38.5
20:40 1012 29.88 842 24.86 4.9 40.7 92 3.7 38.6
20:45 1012 29.88 842 24.86 4.9 40.9 92 3.8 38.8
20:50 1012 29.88 842 24.86 5 41 92 3.8 38.8
20:55 1013 29.91 842 24.86 4.9 40.9 92 3.7 38.7
21:00 1013 29.91 842 24.86 4.9 40.8 92 3.7 38.6
21:05 1013 29.91 842 24.86 4.8 40.7 92 3.7 38.6
21:10 1013 29.91 842 24.86 4.9 40.8 92 3.7 38.6
21:15 1013 29.91 842 24.86 4.9 40.9 92 3.7 38.7
21:20 1013 29.91 842 24.86 4.9 40.9 92 3.7 38.7
21:25 1013 29.91 842 24.86 4.8 40.6 92 3.5 38.4
21:30 1013 29.91 842 24.86 4.7 40.5 91 3.5 38.2
21:35 1013 29.91 843 24.89 4.7 40.5 91 3.4 38.1
21:40 1013 29.91 843 24.89 4.7 40.5 92 3.5 38.3
21:45 1014 29.94 843 24.89 4.7 40.5 92 3.5 38.3
21:50 1014 29.94 843 24.89 4.8 40.6 92 3.5 38.3
21:55 1014 29.94 843 24.89 4.8 40.6 91 3.4 38.2
22:00 1014 29.94 843 24.89 4.8 40.6 91 3.4 38.2
22:05 1014 29.94 843 24.89 4.7 40.5 91 3.5 38.2
22:10 1014 29.94 843 24.89 4.7 40.5 91 3.5 38.2
22:15 1014 29.94 843 24.89 4.7 40.5 90 3.2 37.8
22:20 1014 29.94 843 24.89 4.7 40.4 90 3.1 37.7
22:25 1014 29.94 843 24.89 4.7 40.4 90 3.1 37.5
22:30 1014 29.94 843 24.89 4.6 40.4 88 2.9 37.2
22:35 1014 29.94 843 24.89 4.6 40.3 89 2.9 37.2
22:40 1014 29.94 843 24.89 4.5 40.2 89 2.9 37.3
22:45 1014 29.94 844 24.92 4.5 40.1 90 2.9 37.3
22:50 1014 29.94 844 24.92 4.5 40.1 91 3.1 37.5
22:55 1014 29.94 844 24.92 4.5 40.1 91 3.2 37.7
23:00 1014 29.94 844 24.92 4.4 40 92 3.2 37.8
23:05 1014 29.94 844 24.92 4.4 39.9 92 3.2 37.8
23:10 1014 29.94 844 24.92 4.4 39.9 93 3.4 38
23:15 1015 29.97 844 24.92 4.4 39.9 93 3.3 38
23:20 1015 29.97 844 24.92 4.3 39.8 94 3.4 38.1
23:25 1015 29.97 844 24.92 4.3 39.7 94 3.4 38.1
23:30 1015 29.97 844 24.92 4.3 39.7 94 3.3 38
23:35 1015 29.97 844 24.92 4.2 39.6 94 3.3 37.9
23:40 1015 29.97 844 24.92 4.1 39.3 94 3.2 37.7
23:45 1015 29.97 844 24.92 3.9 39.1 94 3 37.5
23:50 1015 29.97 844 24.92 3.8 38.9 94 3 37.3
23:55 1015 29.97 844 24.92 3.7 38.7 94 2.9 37.2
24:00 1015 29.97 844 24.92 3.7 38.7 95 2.9 37.2